createdAt,value
2018-05-16T00:00:25.471Z,16.20
2018-05-16T00:02:51.718Z,16.21
2018-05-16T00:05:17.963Z,16.16
2018-05-16T00:07:44.204Z,16.18
2018-05-16T00:10:10.472Z,16.18
2018-05-16T00:12:36.694Z,16.23
2018-05-16T00:15:03.124Z,16.24
2018-05-16T00:17:29.351Z,16.22
2018-05-16T00:19:55.623Z,16.24
2018-05-16T00:22:21.851Z,16.26
2018-05-16T00:24:48.078Z,16.25
2018-05-16T00:27:14.330Z,16.26
2018-05-16T00:29:40.583Z,16.26
2018-05-16T00:32:06.842Z,16.24
2018-05-16T00:34:33.101Z,16.18
2018-05-16T00:36:59.402Z,16.17
2018-05-16T00:39:25.640Z,16.10
2018-05-16T00:41:51.890Z,15.92
2018-05-16T00:44:18.134Z,15.92
2018-05-16T00:46:44.399Z,15.94
2018-05-16T00:49:10.666Z,15.96
2018-05-16T00:51:36.988Z,15.97
2018-05-16T00:54:03.308Z,16.00
2018-05-16T00:56:29.632Z,16.00
2018-05-16T00:58:55.951Z,16.00
2018-05-16T01:01:22.223Z,15.93
2018-05-16T01:03:48.498Z,15.84
2018-05-16T01:06:14.773Z,15.83
2018-05-16T01:08:41.027Z,15.89
2018-05-16T01:11:07.294Z,15.93
2018-05-16T01:13:33.538Z,15.96
2018-05-16T01:15:59.899Z,15.96
2018-05-16T01:18:26.140Z,15.97
2018-05-16T01:20:52.425Z,15.97
2018-05-16T01:23:18.751Z,15.91
2018-05-16T01:25:44.971Z,15.92
2018-05-16T01:28:11.219Z,15.88
2018-05-16T01:30:37.526Z,15.83
2018-05-16T01:33:03.786Z,15.76
2018-05-16T01:35:30.111Z,15.74
2018-05-16T01:37:56.338Z,15.68
2018-05-16T01:40:22.582Z,15.59
2018-05-16T01:42:48.822Z,15.38
2018-05-16T01:45:15.158Z,15.34
2018-05-16T01:47:41.530Z,15.36
2018-05-16T01:50:07.891Z,15.41
2018-05-16T01:52:34.201Z,15.48
2018-05-16T01:55:00.555Z,15.57
2018-05-16T01:57:26.806Z,15.54
2018-05-16T01:59:53.083Z,15.50
2018-05-16T02:02:19.338Z,15.48
2018-05-16T02:04:45.626Z,15.53
2018-05-16T02:07:11.862Z,15.54
2018-05-16T02:09:38.128Z,15.54
2018-05-16T02:12:04.386Z,15.59
2018-05-16T02:14:30.641Z,15.59
2018-05-16T02:16:56.904Z,15.61
2018-05-16T02:19:23.143Z,15.54
2018-05-16T02:21:49.402Z,15.55
2018-05-16T02:24:15.639Z,15.60
2018-05-16T02:26:41.875Z,15.59
2018-05-16T02:29:08.153Z,15.61
2018-05-16T02:31:34.382Z,15.60
2018-05-16T02:34:00.762Z,15.59
2018-05-16T02:36:27.018Z,15.58
2018-05-16T02:38:53.258Z,15.52
2018-05-16T02:41:19.524Z,15.49
2018-05-16T02:43:45.799Z,15.37
2018-05-16T02:46:12.063Z,15.36
2018-05-16T02:48:38.318Z,15.38
2018-05-16T02:51:04.546Z,15.41
2018-05-16T02:53:30.818Z,15.42
2018-05-16T02:55:57.043Z,15.45
2018-05-16T02:58:23.321Z,15.49
2018-05-16T03:00:49.559Z,15.49
2018-05-16T03:03:15.832Z,15.47
2018-05-16T03:05:42.130Z,15.43
2018-05-16T03:08:08.363Z,15.38
2018-05-16T03:10:34.663Z,15.39
2018-05-16T03:13:00.895Z,15.40
2018-05-16T03:15:27.183Z,15.34
2018-05-16T03:17:53.454Z,15.39
2018-05-16T03:20:19.744Z,15.35
2018-05-16T03:22:45.996Z,15.33
2018-05-16T03:25:12.336Z,15.37
2018-05-16T03:27:38.627Z,15.36
2018-05-16T03:30:04.882Z,15.37
2018-05-16T03:32:31.094Z,15.38
2018-05-16T03:34:57.371Z,15.38
2018-05-16T03:37:23.619Z,15.21
2018-05-16T03:39:49.858Z,15.25
2018-05-16T03:42:16.119Z,15.29
2018-05-16T03:44:42.443Z,15.27
2018-05-16T03:47:08.755Z,15.24
2018-05-16T03:49:34.995Z,15.14
2018-05-16T03:52:01.338Z,15.12
2018-05-16T03:54:27.662Z,15.11
2018-05-16T03:56:53.932Z,15.11
2018-05-16T03:59:32.266Z,15.13
2018-05-16T04:15:23.194Z,14.73
2018-05-16T04:17:49.445Z,14.66
2018-05-16T04:20:15.718Z,14.72
2018-05-16T04:22:41.958Z,14.77
2018-05-16T04:25:08.210Z,14.81
2018-05-16T04:27:34.519Z,14.91
2018-05-16T04:30:00.824Z,14.99
2018-05-16T04:32:27.047Z,15.08
2018-05-16T04:34:53.306Z,15.11
2018-05-16T04:37:19.558Z,15.11
2018-05-16T04:39:45.806Z,15.15
2018-05-16T04:42:12.055Z,15.08
2018-05-16T04:44:38.278Z,15.07
2018-05-16T04:47:04.577Z,15.12
2018-05-16T04:49:30.877Z,15.13
2018-05-16T04:51:57.094Z,15.11
2018-05-16T04:54:23.370Z,15.11
2018-05-16T04:56:49.611Z,15.15
2018-05-16T04:59:15.898Z,15.08
2018-05-16T05:01:42.166Z,15.04
2018-05-16T05:04:08.474Z,14.95
2018-05-16T05:06:34.730Z,14.92
2018-05-16T05:09:01.004Z,14.82
2018-05-16T05:11:27.236Z,14.75
2018-05-16T05:13:53.520Z,14.71
2018-05-16T05:16:19.771Z,14.64
2018-05-16T05:18:46.099Z,14.61
2018-05-16T05:21:12.334Z,14.55
2018-05-16T05:23:38.583Z,14.62
2018-05-16T05:26:04.849Z,14.69
2018-05-16T05:28:31.074Z,14.76
2018-05-16T05:30:57.335Z,14.78
2018-05-16T05:33:23.579Z,14.81
2018-05-16T05:35:49.814Z,14.78
2018-05-16T05:38:16.058Z,14.73
2018-05-16T05:40:42.307Z,14.74
2018-05-16T05:43:08.604Z,14.73
2018-05-16T05:45:34.867Z,14.73
2018-05-16T05:48:01.085Z,14.80
2018-05-16T05:50:34.278Z,14.80
2018-05-16T05:53:00.507Z,14.78
2018-05-16T05:55:26.762Z,14.78
2018-05-16T05:57:52.999Z,14.83
2018-05-16T06:00:19.246Z,14.89
2018-05-16T06:02:45.507Z,14.88
2018-05-16T06:05:11.763Z,14.83
2018-05-16T06:07:38.039Z,14.85
2018-05-16T06:10:04.287Z,14.85
2018-05-16T06:12:30.513Z,14.89
2018-05-16T06:14:56.763Z,14.75
2018-05-16T06:17:23.012Z,14.77
2018-05-16T06:19:49.324Z,14.72
2018-05-16T06:22:15.522Z,14.65
2018-05-16T06:24:41.770Z,14.55
2018-05-16T06:27:08.176Z,14.71
2018-05-16T06:29:34.347Z,14.67
2018-05-16T06:32:00.578Z,14.75
2018-05-16T06:34:26.865Z,14.77
2018-05-16T06:36:53.090Z,14.59
2018-05-16T06:39:19.355Z,14.59
2018-05-16T06:41:45.619Z,14.69
2018-05-16T06:44:11.915Z,14.77
2018-05-16T06:46:38.202Z,14.64
2018-05-16T06:49:04.471Z,14.57
2018-05-16T06:51:30.774Z,14.46
2018-05-16T06:53:57.026Z,14.47
2018-05-16T06:56:23.355Z,14.58
2018-05-16T06:58:49.594Z,14.61
2018-05-16T07:01:15.843Z,14.68
2018-05-16T07:03:42.119Z,14.64
2018-05-16T07:06:08.374Z,14.58
2018-05-16T07:08:34.607Z,14.59
2018-05-16T07:11:00.946Z,14.62
2018-05-16T07:13:27.263Z,14.73
2018-05-16T07:15:53.526Z,14.85
2018-05-16T07:18:19.818Z,14.92
2018-05-16T07:20:46.078Z,15.00
2018-05-16T07:23:12.381Z,15.00
2018-05-16T07:25:38.671Z,14.80
2018-05-16T07:28:05.318Z,14.73
2018-05-16T07:30:31.554Z,14.70
2018-05-16T07:32:57.778Z,14.79
2018-05-16T07:35:24.094Z,14.89
2018-05-16T07:37:50.372Z,14.82
2018-05-16T07:40:16.599Z,14.82
2018-05-16T07:42:42.863Z,14.83
2018-05-16T07:45:09.150Z,14.76
2018-05-16T07:47:35.490Z,14.62
2018-05-16T07:50:01.762Z,14.59
2018-05-16T07:52:28.011Z,14.58
2018-05-16T07:54:54.267Z,14.60
2018-05-16T07:57:20.490Z,14.66
2018-05-16T07:59:46.843Z,14.77
2018-05-16T08:02:13.154Z,14.81
2018-05-16T08:04:39.383Z,14.83
2018-05-16T08:07:05.627Z,14.84
2018-05-16T08:09:31.875Z,14.87
2018-05-16T08:11:58.174Z,14.87
2018-05-16T08:14:24.470Z,14.91
2018-05-16T08:16:50.810Z,15.03
2018-05-16T08:19:17.054Z,15.12
2018-05-16T08:21:43.426Z,15.12
2018-05-16T08:24:09.690Z,15.11
2018-05-16T08:26:35.922Z,15.13
2018-05-16T08:29:02.152Z,15.14
2018-05-16T08:31:28.462Z,15.14
2018-05-16T08:33:54.707Z,15.20
2018-05-16T08:36:20.966Z,15.25
2018-05-16T08:38:47.179Z,15.25
2018-05-16T08:41:13.430Z,15.28
2018-05-16T08:43:39.701Z,15.34
2018-05-16T08:46:05.954Z,15.33
2018-05-16T08:48:32.235Z,15.40
2018-05-16T08:50:58.463Z,15.32
2018-05-16T08:53:24.734Z,15.28
2018-05-16T08:55:51.002Z,15.21
2018-05-16T08:58:17.255Z,15.23
2018-05-16T09:00:43.511Z,15.30
2018-05-16T09:03:09.762Z,15.34
2018-05-16T09:05:36.035Z,15.37
2018-05-16T09:08:02.367Z,15.34
2018-05-16T09:10:28.584Z,15.39
2018-05-16T09:12:54.853Z,15.51
2018-05-16T09:15:21.822Z,15.53
2018-05-16T09:17:48.043Z,15.55
2018-05-16T09:20:14.295Z,15.70
2018-05-16T09:22:40.555Z,15.89
2018-05-16T09:25:06.956Z,16.00
2018-05-16T09:27:33.154Z,16.08
2018-05-16T09:29:59.423Z,16.08
2018-05-16T09:32:25.681Z,16.09
2018-05-16T09:34:51.931Z,16.04
2018-05-16T09:37:18.199Z,16.05
2018-05-16T09:39:44.510Z,16.12
2018-05-16T09:42:10.731Z,16.16
2018-05-16T09:44:36.983Z,16.26
2018-05-16T09:47:03.227Z,16.27
2018-05-16T09:49:29.508Z,16.41
2018-05-16T09:51:55.771Z,16.53
2018-05-16T09:54:22.031Z,16.73
2018-05-16T09:56:48.286Z,16.79
2018-05-16T09:59:14.551Z,16.87
2018-05-16T10:01:40.847Z,16.92
2018-05-16T10:04:07.160Z,16.96
2018-05-16T10:06:33.475Z,17.08
2018-05-16T10:08:59.738Z,17.17
2018-05-16T10:11:25.982Z,17.35
2018-05-16T10:13:52.234Z,17.48
2018-05-16T10:16:18.470Z,17.45
2018-05-16T10:18:44.726Z,17.47
2018-05-16T10:21:11.015Z,17.48
2018-05-16T10:23:37.269Z,17.59
2018-05-16T10:26:03.590Z,17.73
2018-05-16T10:28:29.838Z,17.79
2018-05-16T10:30:56.091Z,17.71
2018-05-16T10:33:22.371Z,17.69
2018-05-16T10:35:48.614Z,17.66
2018-05-16T10:38:14.895Z,17.56
2018-05-16T10:40:41.154Z,17.54
2018-05-16T10:43:07.372Z,17.56
2018-05-16T10:45:33.607Z,17.59
2018-05-16T10:47:59.891Z,17.51
2018-05-16T10:50:26.706Z,17.40
2018-05-16T10:52:53.011Z,17.47
2018-05-16T10:55:19.257Z,17.45
2018-05-16T10:57:45.490Z,17.40
2018-05-16T11:00:11.767Z,17.28
2018-05-16T11:02:38.015Z,17.34
2018-05-16T11:05:04.272Z,17.27
2018-05-16T11:07:30.562Z,17.29
2018-05-16T11:09:56.855Z,17.19
2018-05-16T11:12:23.099Z,17.14
2018-05-16T11:14:49.338Z,17.12
2018-05-16T11:17:15.618Z,17.10
2018-05-16T11:19:41.842Z,17.03
2018-05-16T11:22:08.134Z,17.03
2018-05-16T11:24:34.386Z,16.96
2018-05-16T11:27:00.610Z,17.03
2018-05-16T11:29:26.893Z,17.24
2018-05-16T11:31:53.111Z,17.34
2018-05-16T11:34:19.342Z,17.36
2018-05-16T11:36:45.615Z,17.37
2018-05-16T11:39:11.878Z,17.42
2018-05-16T11:41:38.140Z,17.49
2018-05-16T11:44:04.387Z,17.43
2018-05-16T11:46:30.759Z,17.40
2018-05-16T11:48:57.074Z,17.36
2018-05-16T11:51:23.257Z,17.31
2018-05-16T11:53:49.518Z,17.27
2018-05-16T11:56:15.742Z,17.25
2018-05-16T11:58:41.975Z,17.26
2018-05-16T12:01:08.215Z,17.25
2018-05-16T12:03:34.450Z,17.27
2018-05-16T12:06:00.706Z,17.25
2018-05-16T12:08:26.950Z,17.23
2018-05-16T12:10:53.203Z,17.33
2018-05-16T12:13:19.446Z,17.49
2018-05-16T12:15:45.702Z,17.75
2018-05-16T12:18:11.958Z,18.51
2018-05-16T12:20:38.204Z,18.59
2018-05-16T12:23:04.435Z,18.48
2018-05-16T12:25:30.685Z,18.50
2018-05-16T12:27:56.932Z,18.47
2018-05-16T12:30:23.190Z,18.59
2018-05-16T12:32:49.446Z,18.49
2018-05-16T12:35:15.687Z,18.34
2018-05-16T12:37:41.935Z,18.16
2018-05-16T12:40:08.171Z,18.29
2018-05-16T12:42:34.422Z,18.56
2018-05-16T12:45:00.670Z,18.91
2018-05-16T12:47:26.894Z,19.37
2018-05-16T12:49:53.178Z,19.50
2018-05-16T12:52:19.402Z,19.55
2018-05-16T12:54:45.656Z,19.63
2018-05-16T12:57:11.883Z,19.49
2018-05-16T12:59:38.119Z,19.48
2018-05-16T13:02:04.374Z,19.60
2018-05-16T13:04:30.635Z,19.87
2018-05-16T13:06:56.924Z,19.93
2018-05-16T13:09:23.158Z,19.67
2018-05-16T13:11:49.378Z,19.61
2018-05-16T13:14:15.622Z,19.45
2018-05-16T13:16:41.861Z,20.15
2018-05-16T13:19:08.130Z,20.27
2018-05-16T13:21:34.437Z,20.71
2018-05-16T13:24:00.622Z,22.50
2018-05-16T13:26:26.881Z,22.69
2018-05-16T13:28:53.135Z,23.96
2018-05-16T13:31:19.416Z,25.85
2018-05-16T13:33:45.646Z,26.78
2018-05-16T13:36:11.891Z,26.35
2018-05-16T13:38:38.155Z,25.70
2018-05-16T13:41:04.399Z,24.54
2018-05-16T13:43:30.691Z,23.73
2018-05-16T13:45:56.922Z,25.98
2018-05-16T13:48:23.159Z,25.42
2018-05-16T13:50:49.460Z,24.60
2018-05-16T13:53:15.703Z,25.46
2018-05-16T13:55:42.042Z,26.16
2018-05-16T13:58:08.355Z,27.23
2018-05-16T14:00:34.578Z,27.74
2018-05-16T14:03:00.864Z,27.86
2018-05-16T14:05:27.143Z,27.86
2018-05-16T14:07:53.394Z,28.23
2018-05-16T14:10:19.670Z,28.90
2018-05-16T14:12:45.927Z,28.23
2018-05-16T14:15:12.270Z,26.08
2018-05-16T14:17:38.459Z,26.88
2018-05-16T14:20:04.800Z,26.03
2018-05-16T14:22:31.051Z,24.89
2018-05-16T14:24:57.278Z,24.72
2018-05-16T14:27:23.542Z,24.51
2018-05-16T14:29:49.759Z,23.68
2018-05-16T14:32:16.043Z,22.87
2018-05-16T14:34:42.290Z,23.35
2018-05-16T14:37:08.526Z,23.20
2018-05-16T14:39:34.782Z,22.95
2018-05-16T14:42:01.091Z,23.81
2018-05-16T14:44:27.403Z,25.80
2018-05-16T14:46:53.666Z,25.11
2018-05-16T14:49:19.916Z,25.06
2018-05-16T14:51:46.199Z,24.24
2018-05-16T14:54:12.547Z,23.08
2018-05-16T14:56:38.782Z,22.30
2018-05-16T14:59:05.083Z,21.95
2018-05-16T15:01:31.338Z,21.61
2018-05-16T15:03:57.639Z,21.26
2018-05-16T15:06:23.910Z,20.91
2018-05-16T15:08:50.191Z,20.73
2018-05-16T15:11:16.659Z,20.46
2018-05-16T15:13:42.982Z,20.34
2018-05-16T15:16:09.266Z,20.12
2018-05-16T15:18:35.522Z,20.07
2018-05-16T15:21:01.751Z,19.94
2018-05-16T15:23:28.132Z,19.85
2018-05-16T15:25:54.426Z,19.61
2018-05-16T15:28:20.676Z,19.47
2018-05-16T15:30:46.959Z,19.28
2018-05-16T15:33:13.208Z,19.17
2018-05-16T15:35:39.470Z,19.05
2018-05-16T15:38:05.821Z,18.98
2018-05-16T15:40:32.085Z,18.90
2018-05-16T15:42:58.355Z,18.83
2018-05-16T15:45:24.658Z,18.78
2018-05-16T15:47:50.919Z,18.80
2018-05-16T15:50:17.230Z,18.75
2018-05-16T15:52:43.552Z,18.66
2018-05-16T15:55:09.847Z,18.64
2018-05-16T15:57:37.107Z,18.66
2018-05-16T16:00:03.467Z,18.70
2018-05-16T16:02:29.738Z,18.69
2018-05-16T16:04:56.002Z,18.69
2018-05-16T16:07:22.520Z,18.61
2018-05-16T16:09:49.038Z,18.59
2018-05-16T16:12:15.307Z,18.53
2018-05-16T16:14:41.606Z,18.45
2018-05-16T16:17:07.856Z,18.32
2018-05-16T16:19:34.158Z,18.21
2018-05-16T16:22:00.466Z,18.24
2018-05-16T16:24:26.785Z,18.29
2018-05-16T16:26:53.052Z,18.27
2018-05-16T16:29:19.290Z,18.31
2018-05-16T16:31:45.735Z,18.36
2018-05-16T16:34:11.967Z,18.39
2018-05-16T16:36:38.206Z,18.38
2018-05-16T16:39:04.562Z,18.39
2018-05-16T16:41:30.857Z,18.36
2018-05-16T16:43:57.122Z,18.31
2018-05-16T16:46:23.422Z,18.25
2018-05-16T16:48:49.743Z,18.27
2018-05-16T16:51:16.007Z,18.28
2018-05-16T16:53:42.330Z,18.28
2018-05-16T16:56:08.715Z,18.28
2018-05-16T16:58:34.950Z,18.28
2018-05-16T17:01:01.187Z,18.28
2018-05-16T17:03:27.509Z,18.22
2018-05-16T17:05:53.761Z,18.16
2018-05-16T17:08:20.057Z,18.05
2018-05-16T17:10:46.327Z,18.05
2018-05-16T17:13:12.559Z,17.92
2018-05-16T17:15:38.814Z,17.81
2018-05-16T17:18:05.986Z,17.74
2018-05-16T17:20:32.254Z,17.62
2018-05-16T17:22:58.496Z,17.66
2018-05-16T17:25:24.721Z,17.65
2018-05-16T17:27:50.967Z,17.70
2018-05-16T17:30:17.202Z,17.72
2018-05-16T17:32:43.487Z,17.65
2018-05-16T17:35:09.716Z,17.56
2018-05-16T17:37:35.946Z,17.46
2018-05-16T17:40:02.279Z,17.49
2018-05-16T17:42:28.522Z,17.57
2018-05-16T17:44:54.859Z,17.60
2018-05-16T17:47:21.109Z,17.63
2018-05-16T17:49:47.367Z,17.69
2018-05-16T17:52:13.661Z,17.68
2018-05-16T17:54:39.899Z,17.59
2018-05-16T17:57:06.159Z,17.65
2018-05-16T17:59:32.385Z,17.58
2018-05-16T18:01:58.631Z,17.59
2018-05-16T18:04:24.886Z,17.54
2018-05-16T18:06:51.118Z,17.52
2018-05-16T18:09:17.407Z,17.47
2018-05-16T18:11:43.693Z,17.42
2018-05-16T18:14:22.071Z,17.28
2018-05-16T18:17:00.441Z,17.20
2018-05-16T18:19:26.719Z,17.23
2018-05-16T18:21:52.950Z,17.20
2018-05-16T18:24:19.171Z,17.12
2018-05-16T18:26:45.444Z,17.10
2018-05-16T18:29:11.781Z,17.04
2018-05-16T18:31:38.232Z,16.87
2018-05-16T18:34:04.643Z,16.77
2018-05-16T18:36:30.887Z,16.74
2018-05-16T18:38:57.146Z,16.82
2018-05-16T18:41:23.373Z,16.76
2018-05-16T18:43:49.618Z,16.84
2018-05-16T18:46:15.999Z,16.89
2018-05-16T18:48:42.299Z,16.84
2018-05-16T18:51:08.878Z,16.76
2018-05-16T18:53:35.155Z,16.70
2018-05-16T18:56:01.580Z,16.61
2018-05-16T18:58:27.857Z,16.57
2018-05-16T19:00:55.596Z,16.46
2018-05-16T19:03:21.853Z,16.43
2018-05-16T19:05:48.168Z,16.40
2018-05-16T19:08:14.519Z,16.36
2018-05-16T19:10:40.765Z,16.38
2018-05-16T19:13:07.115Z,16.35
2018-05-16T19:15:33.418Z,16.34
2018-05-16T19:17:59.679Z,16.28
2018-05-16T19:20:25.953Z,16.22
2018-05-16T19:22:52.192Z,16.21
2018-05-16T19:25:18.517Z,16.19
2018-05-16T19:27:44.826Z,16.13
2018-05-16T19:30:11.202Z,16.08
2018-05-16T19:32:37.423Z,16.12
2018-05-16T19:35:03.696Z,16.04
2018-05-16T19:37:29.975Z,16.03
2018-05-16T19:39:56.243Z,16.02
2018-05-16T19:42:22.707Z,16.03
2018-05-16T19:44:48.946Z,16.04
2018-05-16T19:47:15.202Z,15.98
2018-05-16T19:49:41.468Z,15.93
2018-05-16T19:52:07.762Z,15.90
2018-05-16T19:54:34.175Z,15.80
2018-05-16T19:57:00.399Z,15.68
2018-05-16T19:59:26.617Z,15.68
2018-05-16T20:01:53.210Z,15.71
2018-05-16T20:04:19.457Z,15.81
2018-05-16T20:06:45.830Z,15.83
2018-05-16T20:09:12.130Z,15.85
2018-05-16T20:11:38.461Z,15.85
2018-05-16T20:14:04.714Z,15.80
2018-05-16T20:16:31.015Z,15.82
2018-05-16T20:18:57.282Z,15.80
2018-05-16T20:21:23.867Z,15.89
2018-05-16T20:23:50.528Z,15.85
2018-05-16T20:26:16.778Z,15.95
2018-05-16T20:28:43.073Z,15.94
2018-05-16T20:31:09.383Z,15.91
2018-05-16T20:33:35.636Z,15.86
2018-05-16T20:36:02.034Z,15.72
2018-05-16T20:38:28.292Z,15.66
2018-05-16T20:40:54.537Z,15.61
2018-05-16T20:43:20.983Z,15.60
2018-05-16T20:45:47.464Z,15.62
2018-05-16T20:48:13.697Z,15.71
2018-05-16T20:50:40.137Z,15.69
2018-05-16T20:53:06.633Z,15.68
2018-05-16T20:55:34.125Z,15.72
2018-05-16T20:58:00.471Z,15.71
2018-05-16T21:00:26.902Z,15.64
2018-05-16T21:02:53.159Z,15.66
2018-05-16T21:05:19.490Z,15.75
2018-05-16T21:07:45.703Z,15.71
2018-05-16T21:10:11.954Z,15.72
2018-05-16T21:12:38.223Z,15.76
2018-05-16T21:15:04.531Z,15.70
2018-05-16T21:17:30.758Z,15.74
2018-05-16T21:19:57.014Z,15.72
2018-05-16T21:22:23.250Z,15.68
2018-05-16T21:24:49.497Z,15.66
2018-05-16T21:27:15.754Z,15.62
2018-05-16T21:29:41.998Z,15.63
2018-05-16T21:32:08.273Z,15.50
2018-05-16T21:34:34.742Z,15.44
2018-05-16T21:37:01.146Z,15.45
2018-05-16T21:39:27.411Z,15.42
2018-05-16T21:41:53.653Z,15.43
2018-05-16T21:44:20.998Z,15.54
2018-05-16T21:46:47.215Z,15.59
2018-05-16T21:49:13.437Z,15.55
2018-05-16T21:51:39.823Z,15.60
2018-05-16T21:54:06.058Z,15.72
2018-05-16T21:56:32.323Z,15.76
2018-05-16T21:58:58.581Z,15.74
2018-05-16T22:01:24.839Z,15.78
2018-05-16T22:03:51.359Z,15.75
2018-05-16T22:06:17.578Z,15.70
2018-05-16T22:08:43.835Z,15.70
2018-05-16T22:11:10.059Z,15.55
2018-05-16T22:13:36.299Z,15.16
2018-05-16T22:16:02.733Z,15.25
2018-05-16T22:18:29.741Z,15.35
2018-05-16T22:20:56.002Z,15.48
2018-05-16T22:23:22.222Z,15.48
2018-05-16T22:25:48.446Z,15.42
2018-05-16T22:28:14.703Z,15.26
2018-05-16T22:30:47.074Z,15.15
2018-05-16T22:33:19.341Z,15.23
2018-05-16T22:35:51.766Z,15.18
2018-05-16T22:38:24.191Z,15.11
2018-05-16T22:40:56.608Z,15.06
2018-05-16T22:43:22.927Z,14.99
2018-05-16T22:45:49.198Z,15.08
2018-05-16T22:48:15.490Z,15.13
2018-05-16T22:50:41.715Z,15.05
2018-05-16T22:53:07.954Z,15.10
2018-05-16T22:55:34.202Z,15.03
2018-05-16T22:58:00.439Z,15.12
2018-05-16T23:00:26.784Z,15.08
2018-05-16T23:02:53.655Z,15.18
2018-05-16T23:05:19.919Z,15.18
2018-05-16T23:07:46.186Z,15.21
2018-05-16T23:10:12.414Z,15.15
2018-05-16T23:12:38.682Z,15.16
2018-05-16T23:15:04.910Z,15.19
2018-05-16T23:17:31.146Z,15.16
2018-05-16T23:19:57.428Z,15.06
2018-05-16T23:22:24.141Z,15.07
2018-05-16T23:24:50.374Z,15.15
2018-05-16T23:27:16.647Z,15.27
2018-05-16T23:29:42.902Z,15.27
2018-05-16T23:32:09.134Z,15.29
2018-05-16T23:34:35.399Z,15.28
2018-05-16T23:37:01.647Z,15.30
2018-05-16T23:39:27.878Z,15.32
2018-05-16T23:41:54.139Z,15.43
2018-05-16T23:44:20.437Z,15.42
2018-05-16T23:46:46.663Z,15.47
2018-05-16T23:49:12.955Z,15.44
2018-05-16T23:51:39.211Z,15.45
2018-05-16T23:54:05.446Z,15.36
2018-05-16T23:56:31.698Z,15.30
2018-05-16T23:58:57.954Z,15.32
